Airfield :







YOU CAN JOIN US ON...

 
LOGIN :

Register | Disclaimer

   EN    FR    IT 

 









Legend :    VFR   Marginal VFR   IFR   Intensive IFR   Very Intensive IFR
Visi :
Ceiling :
>= 8 km
>= 3000ft
5 to 8 km
1000 to 3000 ft
1500m to 5 km
500 to 1000 ft
800 to 1500m
200 to 500 ft
< 800m
< 200 ft
Symbols :   Thunderstorms  Fog  Heavy snow  Heavy precipitations  Wind > 20 kt






- Airport Elevation : 285 ft
- IATA code : ALB


KALB - Albany International

CURRENT METAR :
  • 132151Z 17006KT 10SM FEW200 BKN250 15/04 A3001 RMK AO2 SLP162 T01500039

EXPIRED METARs :
  • 132051Z 16004KT 10SM FEW200 BKN250 16/03 A3003 RMK AO2 SLP169 T01610033 56015
  • 131951Z 18004KT 10SM FEW200 BKN250 16/03 A3004 RMK AO2 SLP174 T01610033

TAF KALB
Valid from the 13 at 18:00 until the 14 at 18:00 UTC


131720Z 1318/1418 17005KT P6SM FEW250
FM132300 VRB03KT P6SM SCT250
FM140400 VRB03KT P6SM SCT200
FM141230 19007KT P6SM SCT100 SCT200



MET'MAP, your aeronautical weather chart ! - Copyright ORBIFLY December 2007 - Disclaimer

ORBIFLY MET'MAP TEAM :

Programming & Development : Alexandra Zaïnal
Concept & Development : Baudouin d'Aumeries
Co-Development & Prog : Marc-Olivier Méhu
Technical & hardware support : Manuel Goepfert

Contact : metmap@orbifly.com




SOURCES & CREDITS :

   NOAA